sensor_id;sensor_type;location;lat;lon;timestamp;temperature;humidity
2757;DHT22;1386;50.862;6.494;2022-08-03T05:18:16;20.00;99.90
2757;DHT22;1386;50.862;6.494;2022-08-03T05:20:43;20.00;99.90
2757;DHT22;1386;50.862;6.494;2022-08-03T05:23:10;20.00;99.90
2757;DHT22;1386;50.862;6.494;2022-08-03T05:25:37;20.00;99.90
2757;DHT22;1386;50.862;6.494;2022-08-03T05:28:04;20.00;99.90
2757;DHT22;1386;50.862;6.494;2022-08-03T05:30:30;20.10;99.90
2757;DHT22;1386;50.862;6.494;2022-08-03T05:32:57;20.10;99.90
2757;DHT22;1386;50.862;6.494;2022-08-03T05:35:26;20.10;99.90
2757;DHT22;1386;50.862;6.494;2022-08-03T05:37:54;20.10;99.90
2757;DHT22;1386;50.862;6.494;2022-08-03T05:40:21;20.20;99.90
2757;DHT22;1386;50.862;6.494;2022-08-03T05:42:48;20.20;99.90
2757;DHT22;1386;50.862;6.494;2022-08-03T05:45:15;20.30;99.90
2757;DHT22;1386;50.862;6.494;2022-08-03T05:47:43;20.30;99.90
2757;DHT22;1386;50.862;6.494;2022-08-03T05:50:10;20.30;99.90
2757;DHT22;1386;50.862;6.494;2022-08-03T05:52:39;20.40;99.90
2757;DHT22;1386;50.862;6.494;2022-08-03T05:55:08;20.40;99.90
2757;DHT22;1386;50.862;6.494;2022-08-03T05:57:35;20.50;99.90
2757;DHT22;1386;50.862;6.494;2022-08-03T06:00:04;20.50;99.90
2757;DHT22;1386;50.862;6.494;2022-08-03T06:02:32;20.60;99.90
2757;DHT22;1386;50.862;6.494;2022-08-03T06:04:58;20.70;99.90
2757;DHT22;1386;50.862;6.494;2022-08-03T06:07:25;20.70;99.90
2757;DHT22;1386;50.862;6.494;2022-08-03T06:09:54;20.80;99.90
2757;DHT22;1386;50.862;6.494;2022-08-03T06:12:21;20.90;99.90
2757;DHT22;1386;50.862;6.494;2022-08-03T06:14:47;20.90;99.90
2757;DHT22;1386;50.862;6.494;2022-08-03T06:17:14;21.00;99.90
2757;DHT22;1386;50.862;6.494;2022-08-03T06:19:41;21.10;99.90
2757;DHT22;1386;50.862;6.494;2022-08-03T06:22:08;21.10;99.90
2757;DHT22;1386;50.862;6.494;2022-08-03T06:24:35;21.20;99.90
2757;DHT22;1386;50.862;6.494;2022-08-03T06:27:03;21.30;99.90
2757;DHT22;1386;50.862;6.494;2022-08-03T06:29:30;21.40;99.90
2757;DHT22;1386;50.862;6.494;2022-08-03T06:31:57;21.50;99.90
2757;DHT22;1386;50.862;6.494;2022-08-03T06:34:24;21.60;99.90
2757;DHT22;1386;50.862;6.494;2022-08-03T06:36:51;21.70;99.90
2757;DHT22;1386;50.862;6.494;2022-08-03T06:39:19;21.80;99.90
2757;DHT22;1386;50.862;6.494;2022-08-03T06:41:46;21.90;99.90
2757;DHT22;1386;50.862;6.494;2022-08-03T06:44:14;22.00;99.90
2757;DHT22;1386;50.862;6.494;2022-08-03T06:46:41;22.10;99.90
2757;DHT22;1386;50.862;6.494;2022-08-03T06:49:08;22.20;99.90
2757;DHT22;1386;50.862;6.494;2022-08-03T06:51:35;22.40;99.90
2757;DHT22;1386;50.862;6.494;2022-08-03T06:54:02;22.50;99.90
2757;DHT22;1386;50.862;6.494;2022-08-03T06:56:29;22.60;99.90
2757;DHT22;1386;50.862;6.494;2022-08-03T06:58:55;22.70;99.90
2757;DHT22;1386;50.862;6.494;2022-08-03T07:01:24;22.90;99.90
2757;DHT22;1386;50.862;6.494;2022-08-03T07:03:51;23.00;99.90
2757;DHT22;1386;50.862;6.494;2022-08-03T07:06:19;23.10;99.90
2757;DHT22;1386;50.862;6.494;2022-08-03T07:08:46;23.30;99.90
2757;DHT22;1386;50.862;6.494;2022-08-03T07:11:13;23.50;99.90
2757;DHT22;1386;50.862;6.494;2022-08-03T07:13:39;23.70;99.90
2757;DHT22;1386;50.862;6.494;2022-08-03T07:16:06;23.90;99.90
2757;DHT22;1386;50.862;6.494;2022-08-03T07:18:37;24.00;99.90
2757;DHT22;1386;50.862;6.494;2022-08-03T07:21:04;24.30;99.90
2757;DHT22;1386;50.862;6.494;2022-08-03T07:23:32;24.50;99.90
2757;DHT22;1386;50.862;6.494;2022-08-03T07:25:59;24.70;99.90
2757;DHT22;1386;50.862;6.494;2022-08-03T07:28:26;24.80;99.90
2757;DHT22;1386;50.862;6.494;2022-08-03T07:30:52;24.90;99.90
2757;DHT22;1386;50.862;6.494;2022-08-03T07:33:19;25.10;99.90
2757;DHT22;1386;50.862;6.494;2022-08-03T07:35:47;25.30;99.90
2757;DHT22;1386;50.862;6.494;2022-08-03T07:38:14;25.40;99.90
2757;DHT22;1386;50.862;6.494;2022-08-03T07:40:42;25.60;99.90
2757;DHT22;1386;50.862;6.494;2022-08-03T07:43:09;25.70;99.90
2757;DHT22;1386;50.862;6.494;2022-08-03T07:45:36;25.90;99.90
2757;DHT22;1386;50.862;6.494;2022-08-03T07:48:03;26.00;99.90
2757;DHT22;1386;50.862;6.494;2022-08-03T07:50:30;26.00;99.90
2757;DHT22;1386;50.862;6.494;2022-08-03T07:52:58;26.20;99.90
2757;DHT22;1386;50.862;6.494;2022-08-03T07:55:25;26.20;99.90
2757;DHT22;1386;50.862;6.494;2022-08-03T07:58:01;26.30;98.90
2757;DHT22;1386;50.862;6.494;2022-08-03T08:00:28;26.40;99.20
2757;DHT22;1386;50.862;6.494;2022-08-03T08:02:55;26.50;98.90
2757;DHT22;1386;50.862;6.494;2022-08-03T08:05:22;26.50;98.80
2757;DHT22;1386;50.862;6.494;2022-08-03T08:07:49;26.60;98.40
2757;DHT22;1386;50.862;6.494;2022-08-03T08:10:17;26.70;98.10
2757;DHT22;1386;50.862;6.494;2022-08-03T08:12:44;26.80;98.30
2757;DHT22;1386;50.862;6.494;2022-08-03T08:15:11;26.90;97.70
2757;DHT22;1386;50.862;6.494;2022-08-03T08:17:42;27.00;97.70
2757;DHT22;1386;50.862;6.494;2022-08-03T08:20:10;27.10;97.50
2757;DHT22;1386;50.862;6.494;2022-08-03T08:22:37;27.20;97.40
2757;DHT22;1386;50.862;6.494;2022-08-03T08:25:04;27.40;97.20
2757;DHT22;1386;50.862;6.494;2022-08-03T08:27:33;27.50;96.70
2757;DHT22;1386;50.862;6.494;2022-08-03T08:30:07;27.60;96.20
2757;DHT22;1386;50.862;6.494;2022-08-03T08:32:34;27.80;95.60
2757;DHT22;1386;50.862;6.494;2022-08-03T08:35:02;28.00;95.20
2757;DHT22;1386;50.862;6.494;2022-08-03T08:37:28;28.10;94.00
2757;DHT22;1386;50.862;6.494;2022-08-03T08:39:56;28.30;93.70
2757;DHT22;1386;50.862;6.494;2022-08-03T08:42:23;28.50;93.40
2757;DHT22;1386;50.862;6.494;2022-08-03T08:44:52;28.80;92.50
2757;DHT22;1386;50.862;6.494;2022-08-03T08:47:23;29.00;92.00
2757;DHT22;1386;50.862;6.494;2022-08-03T08:49:52;29.20;91.50
2757;DHT22;1386;50.862;6.494;2022-08-03T08:52:23;29.30;91.00
2757;DHT22;1386;50.862;6.494;2022-08-03T08:54:51;29.60;90.50
2757;DHT22;1386;50.862;6.494;2022-08-03T08:57:21;29.80;90.50
2757;DHT22;1386;50.862;6.494;2022-08-03T08:59:51;29.90;89.90
2757;DHT22;1386;50.862;6.494;2022-08-03T09:02:21;30.10;89.20
2757;DHT22;1386;50.862;6.494;2022-08-03T09:04:48;30.30;87.50
2757;DHT22;1386;50.862;6.494;2022-08-03T09:07:15;30.50;86.80
2757;DHT22;1386;50.862;6.494;2022-08-03T09:09:43;30.70;87.00
2757;DHT22;1386;50.862;6.494;2022-08-03T09:12:10;30.90;86.50
2757;DHT22;1386;50.862;6.494;2022-08-03T09:14:36;31.10;85.00
2757;DHT22;1386;50.862;6.494;2022-08-03T09:17:05;31.30;84.50
2757;DHT22;1386;50.862;6.494;2022-08-03T09:19:34;31.40;82.60
2757;DHT22;1386;50.862;6.494;2022-08-03T09:22:12;31.50;80.90
2757;DHT22;1386;50.862;6.494;2022-08-03T09:24:53;31.60;80.80
2757;DHT22;1386;50.862;6.494;2022-08-03T09:27:22;31.80;81.70
2757;DHT22;1386;50.862;6.494;2022-08-03T09:29:50;32.00;79.00
2757;DHT22;1386;50.862;6.494;2022-08-03T09:32:21;32.20;79.30
2757;DHT22;1386;50.862;6.494;2022-08-03T09:34:50;32.20;78.60
2757;DHT22;1386;50.862;6.494;2022-08-03T09:37:19;32.30;78.80
2757;DHT22;1386;50.862;6.494;2022-08-03T11:52:45;35.10;59.10
2757;DHT22;1386;50.862;6.494;2022-08-03T11:55:14;35.00;58.90
2757;DHT22;1386;50.862;6.494;2022-08-03T11:57:43;35.00;58.50
2757;DHT22;1386;50.862;6.494;2022-08-03T12:00:28;35.10;58.80
2757;DHT22;1386;50.862;6.494;2022-08-03T12:03:06;35.20;59.20
2757;DHT22;1386;50.862;6.494;2022-08-03T12:05:38;35.10;58.60
2757;DHT22;1386;50.862;6.494;2022-08-03T12:08:07;35.10;59.00
2757;DHT22;1386;50.862;6.494;2022-08-03T12:10:35;35.20;58.40
2757;DHT22;1386;50.862;6.494;2022-08-03T12:13:03;35.30;58.20
2757;DHT22;1386;50.862;6.494;2022-08-03T12:15:33;35.40;58.60
2757;DHT22;1386;50.862;6.494;2022-08-03T12:18:02;35.50;58.60
2757;DHT22;1386;50.862;6.494;2022-08-03T12:20:30;35.50;58.10
2757;DHT22;1386;50.862;6.494;2022-08-03T12:23:02;35.50;58.30
2757;DHT22;1386;50.862;6.494;2022-08-03T12:25:33;35.70;57.90
2757;DHT22;1386;50.862;6.494;2022-08-03T12:28:11;35.60;57.00
2757;DHT22;1386;50.862;6.494;2022-08-03T12:30:41;35.50;56.60
2757;DHT22;1386;50.862;6.494;2022-08-03T12:33:20;35.50;57.30
2757;DHT22;1386;50.862;6.494;2022-08-03T12:35:49;35.50;57.30
2757;DHT22;1386;50.862;6.494;2022-08-03T12:38:21;35.50;57.50
2757;DHT22;1386;50.862;6.494;2022-08-03T12:40:58;35.60;57.40
2757;DHT22;1386;50.862;6.494;2022-08-03T12:43:25;35.60;57.30
2757;DHT22;1386;50.862;6.494;2022-08-03T12:46:06;35.70;57.40
2757;DHT22;1386;50.862;6.494;2022-08-03T12:48:33;35.70;57.10
2757;DHT22;1386;50.862;6.494;2022-08-03T12:51:07;35.80;56.60
2757;DHT22;1386;50.862;6.494;2022-08-03T12:53:35;35.80;56.90
2757;DHT22;1386;50.862;6.494;2022-08-03T12:56:04;35.90;56.40
2757;DHT22;1386;50.862;6.494;2022-08-03T12:58:33;35.90;56.50
2757;DHT22;1386;50.862;6.494;2022-08-03T13:01:00;35.80;56.30
2757;DHT22;1386;50.862;6.494;2022-08-03T13:03:27;35.70;55.60
2757;DHT22;1386;50.862;6.494;2022-08-03T13:05:54;35.70;56.20
2757;DHT22;1386;50.862;6.494;2022-08-03T13:08:23;35.60;56.30
2757;DHT22;1386;50.862;6.494;2022-08-03T13:10:50;35.50;56.50
2757;DHT22;1386;50.862;6.494;2022-08-03T13:13:37;35.60;56.30
2757;DHT22;1386;50.862;6.494;2022-08-03T13:16:04;35.60;56.50
2757;DHT22;1386;50.862;6.494;2022-08-03T13:18:31;35.50;56.20
2757;DHT22;1386;50.862;6.494;2022-08-03T13:20:58;35.70;56.70
2757;DHT22;1386;50.862;6.494;2022-08-03T13:23:24;35.70;56.90
2757;DHT22;1386;50.862;6.494;2022-08-03T21:27:10;27.30;75.40
2757;DHT22;1386;50.862;6.494;2022-08-03T21:29:55;27.30;75.30
